sensor_id;sensor_type;location;lat;lon;timestamp;pressure;altitude;pressure_sealevel;temperature;humidity
62524;BME280;53689;56.878;60.672;2023-04-04T00:02:16;98772.78;;;23.46;16.17
62524;BME280;53689;56.878;60.672;2023-04-04T00:04:43;98768.22;;;23.47;16.56
62524;BME280;53689;56.878;60.672;2023-04-04T00:07:12;98783.59;;;23.46;16.15
62524;BME280;53689;56.878;60.672;2023-04-04T00:09:39;98779.84;;;23.47;15.99
62524;BME280;53689;56.878;60.672;2023-04-04T00:12:06;98786.09;;;23.48;16.22
62524;BME280;53689;56.878;60.672;2023-04-04T00:14:34;98802.31;;;23.48;16.30
62524;BME280;53689;56.878;60.672;2023-04-04T00:17:01;98797.31;;;23.45;16.49
62524;BME280;53689;56.878;60.672;2023-04-04T00:19:29;98814.31;;;23.38;16.82
62524;BME280;53689;56.878;60.672;2023-04-04T00:21:56;98802.22;;;23.34;16.38
62524;BME280;53689;56.878;60.672;2023-04-04T00:24:25;98809.16;;;23.22;16.89
62524;BME280;53689;56.878;60.672;2023-04-04T00:26:52;98806.59;;;23.13;16.74
62524;BME280;53689;56.878;60.672;2023-04-04T00:29:19;98803.88;;;23.13;17.13
62524;BME280;53689;56.878;60.672;2023-04-04T00:31:46;98806.59;;;23.13;16.84
62524;BME280;53689;56.878;60.672;2023-04-04T00:34:13;98808.28;;;23.14;17.11
62524;BME280;53689;56.878;60.672;2023-04-04T00:36:41;98809.09;;;23.15;17.23
62524;BME280;53689;56.878;60.672;2023-04-04T00:39:08;98810.78;;;23.16;16.57
62524;BME280;53689;56.878;60.672;2023-04-04T00:41:37;98816.63;;;23.20;16.59
62524;BME280;53689;56.878;60.672;2023-04-04T00:44:04;98819.91;;;23.15;17.00
62524;BME280;53689;56.878;60.672;2023-04-04T00:46:32;98815.53;;;23.14;17.00
62524;BME280;53689;56.878;60.672;2023-04-04T00:49:00;98825.72;;;23.12;17.05
62524;BME280;53689;56.878;60.672;2023-04-04T00:51:28;98826.47;;;23.06;16.51
62524;BME280;53689;56.878;60.672;2023-04-04T00:53:56;98831.06;;;23.05;16.63
62524;BME280;53689;56.878;60.672;2023-04-04T00:56:25;98833.94;;;23.04;16.98
62524;BME280;53689;56.878;60.672;2023-04-04T00:58:54;98836.13;;;22.93;17.08
62524;BME280;53689;56.878;60.672;2023-04-04T01:01:22;98839.28;;;22.97;16.61
62524;BME280;53689;56.878;60.672;2023-04-04T01:03:49;98837.63;;;22.96;16.58
62524;BME280;53689;56.878;60.672;2023-04-04T01:06:18;98837.63;;;22.96;16.52
62524;BME280;53689;56.878;60.672;2023-04-04T01:08:46;98836.94;;;22.94;16.54
62524;BME280;53689;56.878;60.672;2023-04-04T01:11:14;98834.66;;;22.91;16.84
62524;BME280;53689;56.878;60.672;2023-04-04T01:13:42;98837.75;;;22.88;17.03
62524;BME280;53689;56.878;60.672;2023-04-04T01:16:15;98833.44;;;22.93;16.37
62524;BME280;53689;56.878;60.672;2023-04-04T01:18:43;98840.69;;;22.93;16.75
62524;BME280;53689;56.878;60.672;2023-04-04T01:21:12;98840.94;;;22.98;16.67
62524;BME280;53689;56.878;60.672;2023-04-04T01:23:43;98840.91;;;22.91;16.60
62524;BME280;53689;56.878;60.672;2023-04-04T01:26:15;98846.03;;;22.86;16.51
62524;BME280;53689;56.878;60.672;2023-04-04T01:28:44;98848.16;;;22.91;17.14
62524;BME280;53689;56.878;60.672;2023-04-04T01:31:13;98847.13;;;22.92;16.38
62524;BME280;53689;56.878;60.672;2023-04-04T01:33:41;98850.84;;;22.91;16.64
62524;BME280;53689;56.878;60.672;2023-04-04T01:36:15;98850.00;;;22.90;16.46
62524;BME280;53689;56.878;60.672;2023-04-04T01:38:45;98842.94;;;22.89;16.72
62524;BME280;53689;56.878;60.672;2023-04-04T01:41:19;98847.06;;;22.85;16.72
62524;BME280;53689;56.878;60.672;2023-04-04T01:43:53;98842.69;;;22.84;16.68
62524;BME280;53689;56.878;60.672;2023-04-04T01:46:23;98850.31;;;22.80;16.69
62524;BME280;53689;56.878;60.672;2023-04-04T01:48:52;98849.69;;;22.78;17.13
62524;BME280;53689;56.878;60.672;2023-04-04T01:51:23;98851.19;;;22.66;16.74
62524;BME280;53689;56.878;60.672;2023-04-04T01:53:51;98848.97;;;22.69;16.87
62524;BME280;53689;56.878;60.672;2023-04-04T01:56:20;98844.59;;;22.68;17.21
62524;BME280;53689;56.878;60.672;2023-04-04T01:58:47;98842.06;;;22.67;17.33
62524;BME280;53689;56.878;60.672;2023-04-04T02:01:14;98842.84;;;22.61;16.92
62524;BME280;53689;56.878;60.672;2023-04-04T02:03:42;98836.59;;;22.60;17.38
62524;BME280;53689;56.878;60.672;2023-04-04T02:06:10;98838.94;;;22.63;17.70
62524;BME280;53689;56.878;60.672;2023-04-04T02:08:38;98838.84;;;22.56;17.20
62524;BME280;53689;56.878;60.672;2023-04-04T02:11:08;98830.81;;;22.11;17.69
62524;BME280;53689;56.878;60.672;2023-04-04T02:13:36;98838.50;;;22.14;18.19
62524;BME280;53689;56.878;60.672;2023-04-04T02:16:03;98839.81;;;22.34;18.41
62524;BME280;53689;56.878;60.672;2023-04-04T02:18:31;98846.16;;;22.11;20.98
62524;BME280;53689;56.878;60.672;2023-04-04T02:20:58;98843.25;;;22.27;18.97
62524;BME280;53689;56.878;60.672;2023-04-04T02:23:25;98838.19;;;22.02;19.60
62524;BME280;53689;56.878;60.672;2023-04-04T02:25:53;98854.72;;;22.29;18.13
62524;BME280;53689;56.878;60.672;2023-04-04T02:28:20;98850.44;;;22.20;18.08
62524;BME280;53689;56.878;60.672;2023-04-04T02:30:49;98857.59;;;22.28;17.90
62524;BME280;53689;56.878;60.672;2023-04-04T02:33:16;98851.72;;;22.24;17.91
62524;BME280;53689;56.878;60.672;2023-04-04T02:35:45;98864.72;;;22.51;17.30
62524;BME280;53689;56.878;60.672;2023-04-04T02:38:12;98860.34;;;22.35;19.81
62524;BME280;53689;56.878;60.672;2023-04-04T02:40:44;98863.22;;;22.33;18.68
62524;BME280;53689;56.878;60.672;2023-04-04T02:43:11;98866.03;;;22.10;18.04
62524;BME280;53689;56.878;60.672;2023-04-04T02:45:39;98866.72;;;22.12;18.97
62524;BME280;53689;56.878;60.672;2023-04-04T02:48:34;98870.03;;;22.44;17.90
62524;BME280;53689;56.878;60.672;2023-04-04T02:51:01;98867.78;;;22.48;17.80
62524;BME280;53689;56.878;60.672;2023-04-04T02:53:30;98867.31;;;22.44;18.04
62524;BME280;53689;56.878;60.672;2023-04-04T02:56:02;98866.06;;;22.25;18.12
62524;BME280;53689;56.878;60.672;2023-04-04T02:58:30;98872.00;;;22.35;17.97
62524;BME280;53689;56.878;60.672;2023-04-04T03:00:57;98863.25;;;22.18;17.82
62524;BME280;53689;56.878;60.672;2023-04-04T03:03:28;98869.03;;;22.15;18.40
62524;BME280;53689;56.878;60.672;2023-04-04T03:05:58;98867.75;;;22.11;18.45
62524;BME280;53689;56.878;60.672;2023-04-04T03:08:26;98872.66;;;22.07;18.29
62524;BME280;53689;56.878;60.672;2023-04-04T03:10:56;98886.03;;;21.85;18.17
62524;BME280;53689;56.878;60.672;2023-04-04T03:13:24;98880.19;;;21.82;18.59
62524;BME280;53689;56.878;60.672;2023-04-04T03:15:56;98883.53;;;21.84;18.71
62524;BME280;53689;56.878;60.672;2023-04-04T03:18:25;98873.78;;;21.83;18.49
62524;BME280;53689;56.878;60.672;2023-04-04T03:20:52;98883.53;;;21.84;18.72
62524;BME280;53689;56.878;60.672;2023-04-04T03:23:21;98883.72;;;21.82;18.96
62524;BME280;53689;56.878;60.672;2023-04-04T03:25:48;98896.66;;;21.63;19.91
62524;BME280;53689;56.878;60.672;2023-04-04T03:28:16;98884.16;;;21.71;19.19
62524;BME280;53689;56.878;60.672;2023-04-04T03:30:43;98897.34;;;21.81;19.16
62524;BME280;53689;56.878;60.672;2023-04-04T03:33:10;98899.63;;;21.92;18.66
62524;BME280;53689;56.878;60.672;2023-04-04T03:35:38;98902.50;;;22.06;18.92
62524;BME280;53689;56.878;60.672;2023-04-04T03:38:06;98903.16;;;22.08;18.54
62524;BME280;53689;56.878;60.672;2023-04-04T03:40:35;98906.06;;;22.21;18.71
62524;BME280;53689;56.878;60.672;2023-04-04T03:43:09;98909.56;;;22.37;18.67
62524;BME280;53689;56.878;60.672;2023-04-04T03:45:38;98909.56;;;22.52;17.99
62524;BME280;53689;56.878;60.672;2023-04-04T03:48:06;98911.59;;;22.65;18.11
62524;BME280;53689;56.878;60.672;2023-04-04T03:50:36;98924.81;;;22.75;17.89
62524;BME280;53689;56.878;60.672;2023-04-04T03:53:03;98914.25;;;22.80;18.11
62524;BME280;53689;56.878;60.672;2023-04-04T03:55:30;98919.09;;;22.84;18.11
62524;BME280;53689;56.878;60.672;2023-04-04T03:58:00;98906.91;;;22.89;18.00
62524;BME280;53689;56.878;60.672;2023-04-04T04:00:28;98915.00;;;22.89;18.45
62524;BME280;53689;56.878;60.672;2023-04-04T04:02:55;98910.63;;;22.88;18.53
62524;BME280;53689;56.878;60.672;2023-04-04T04:05:23;98917.69;;;22.89;18.57
62524;BME280;53689;56.878;60.672;2023-04-04T04:07:50;98914.72;;;22.83;18.50
62524;BME280;53689;56.878;60.672;2023-04-04T04:10:17;98913.06;;;22.82;18.65
62524;BME280;53689;56.878;60.672;2023-04-04T04:12:45;98910.94;;;22.78;18.85
62524;BME280;53689;56.878;60.672;2023-04-04T04:15:14;98920.75;;;22.85;18.89
62524;BME280;53689;56.878;60.672;2023-04-04T04:17:42;98915.19;;;22.87;18.52
62524;BME280;53689;56.878;60.672;2023-04-04T04:20:11;98920.28;;;22.97;18.42
62524;BME280;53689;56.878;60.672;2023-04-04T04:22:46;98925.03;;;22.95;18.31
62524;BME280;53689;56.878;60.672;2023-04-04T04:25:13;98917.13;;;22.93;18.75
62524;BME280;53689;56.878;60.672;2023-04-04T04:27:46;98919.63;;;22.95;18.39
62524;BME280;53689;56.878;60.672;2023-04-04T04:30:17;98917.19;;;23.00;18.23
62524;BME280;53689;56.878;60.672;2023-04-04T04:32:45;98918.22;;;22.99;18.47
62524;BME280;53689;56.878;60.672;2023-04-04T04:35:13;98920.94;;;22.99;19.86
62524;BME280;53689;56.878;60.672;2023-04-04T04:37:41;98923.00;;;22.97;20.13
62524;BME280;53689;56.878;60.672;2023-04-04T04:40:09;98929.03;;;22.99;20.07
62524;BME280;53689;56.878;60.672;2023-04-04T04:42:45;98933.16;;;22.80;20.69
62524;BME280;53689;56.878;60.672;2023-04-04T04:45:17;98933.16;;;22.80;20.50
62524;BME280;53689;56.878;60.672;2023-04-04T04:47:51;98941.75;;;22.38;20.80
62524;BME280;53689;56.878;60.672;2023-04-04T04:50:19;98946.44;;;22.59;20.43
62524;BME280;53689;56.878;60.672;2023-04-04T04:52:49;98953.59;;;22.52;20.53
62524;BME280;53689;56.878;60.672;2023-04-04T04:55:17;98954.88;;;22.56;20.36
62524;BME280;53689;56.878;60.672;2023-04-04T04:57:52;98951.50;;;22.84;20.73
62524;BME280;53689;56.878;60.672;2023-04-04T05:00:27;98955.97;;;22.92;20.18
62524;BME280;53689;56.878;60.672;2023-04-04T05:02:54;98955.41;;;22.97;20.15
62524;BME280;53689;56.878;60.672;2023-04-04T05:05:33;98961.94;;;22.88;20.45
62524;BME280;53689;56.878;60.672;2023-04-04T05:08:04;98950.47;;;22.85;20.48
62524;BME280;53689;56.878;60.672;2023-04-04T05:10:36;98951.94;;;22.88;20.01
62524;BME280;53689;56.878;60.672;2023-04-04T05:13:06;98958.38;;;22.87;20.02
62524;BME280;53689;56.878;60.672;2023-04-04T05:15:41;98951.69;;;22.83;19.89
62524;BME280;53689;56.878;60.672;2023-04-04T05:18:09;98959.22;;;22.88;20.15
62524;BME280;53689;56.878;60.672;2023-04-04T05:20:37;98957.09;;;22.83;20.39
62524;BME280;53689;56.878;60.672;2023-04-04T05:23:08;98953.75;;;22.66;19.89
62524;BME280;53689;56.878;60.672;2023-04-04T05:25:39;98954.19;;;22.84;19.97
62524;BME280;53689;56.878;60.672;2023-04-04T05:28:07;98954.75;;;22.80;20.09
62524;BME280;53689;56.878;60.672;2023-04-04T05:30:36;98961.81;;;22.96;19.50
62524;BME280;53689;56.878;60.672;2023-04-04T05:33:21;98960.13;;;22.95;19.49
62524;BME280;53689;56.878;60.672;2023-04-04T05:36:09;98969.53;;;22.99;19.69
62524;BME280;53689;56.878;60.672;2023-04-04T05:38:41;98962.25;;;22.99;19.97
62524;BME280;53689;56.878;60.672;2023-04-04T05:41:09;98963.28;;;22.98;19.70
62524;BME280;53689;56.878;60.672;2023-04-04T05:43:36;98958.97;;;23.04;19.58
62524;BME280;53689;56.878;60.672;2023-04-04T05:46:07;98962.72;;;23.03;19.67
62524;BME280;53689;56.878;60.672;2023-04-04T05:48:45;98951.34;;;23.08;19.85
62524;BME280;53689;56.878;60.672;2023-04-04T05:51:12;98960.44;;;22.85;20.65
62524;BME280;53689;56.878;60.672;2023-04-04T05:53:47;98953.97;;;23.01;20.00
62524;BME280;53689;56.878;60.672;2023-04-04T05:56:20;98950.31;;;23.09;20.65
62524;BME280;53689;56.878;60.672;2023-04-04T05:58:47;98953.84;;;23.09;20.90
62524;BME280;53689;56.878;60.672;2023-04-04T06:01:15;98953.69;;;23.11;20.54
62524;BME280;53689;56.878;60.672;2023-04-04T06:03:43;98956.41;;;22.96;21.06
62524;BME280;53689;56.878;60.672;2023-04-04T06:06:15;98957.56;;;22.86;20.92
62524;BME280;53689;56.878;60.672;2023-04-04T06:08:42;98961.03;;;23.02;21.07
62524;BME280;53689;56.878;60.672;2023-04-04T06:11:20;98960.91;;;22.89;21.22
62524;BME280;53689;56.878;60.672;2023-04-04T06:13:47;98952.59;;;22.90;20.83
62524;BME280;53689;56.878;60.672;2023-04-04T06:16:16;98960.47;;;23.07;20.75
62524;BME280;53689;56.878;60.672;2023-04-04T06:18:43;98960.69;;;22.90;20.88
62524;BME280;53689;56.878;60.672;2023-04-04T06:21:10;98957.25;;;22.96;20.30
62524;BME280;53689;56.878;60.672;2023-04-04T06:23:40;98954.63;;;23.03;20.45
62524;BME280;53689;56.878;60.672;2023-04-04T06:26:07;98954.28;;;22.91;20.03
62524;BME280;53689;56.878;60.672;2023-04-04T06:28:36;98956.41;;;22.96;20.17
62524;BME280;53689;56.878;60.672;2023-04-04T06:31:04;98955.00;;;23.00;20.10
62524;BME280;53689;56.878;60.672;2023-04-04T06:33:32;98951.59;;;22.91;20.22
62524;BME280;53689;56.878;60.672;2023-04-04T06:36:00;98948.91;;;22.91;20.02
62524;BME280;53689;56.878;60.672;2023-04-04T06:38:27;98945.63;;;22.81;20.28
62524;BME280;53689;56.878;60.672;2023-04-04T06:40:57;98950.34;;;22.94;20.24
62524;BME280;53689;56.878;60.672;2023-04-04T06:43:25;98951.09;;;23.03;20.36
62524;BME280;53689;56.878;60.672;2023-04-04T06:45:56;98944.41;;;22.83;20.21
62524;BME280;53689;56.878;60.672;2023-04-04T06:48:24;98947.75;;;23.00;19.95
62524;BME280;53689;56.878;60.672;2023-04-04T06:50:51;98939.44;;;23.02;20.20
62524;BME280;53689;56.878;60.672;2023-04-04T06:53:19;98943.81;;;23.03;20.18
62524;BME280;53689;56.878;60.672;2023-04-04T06:55:46;98944.66;;;23.04;19.86
62524;BME280;53689;56.878;60.672;2023-04-04T06:58:15;98941.78;;;23.05;19.88
62524;BME280;53689;56.878;60.672;2023-04-04T07:00:43;98938.22;;;23.05;19.74
62524;BME280;53689;56.878;60.672;2023-04-04T07:03:12;98940.94;;;23.05;19.83
62524;BME280;53689;56.878;60.672;2023-04-04T07:05:40;98935.28;;;22.84;20.60
62524;BME280;53689;56.878;60.672;2023-04-04T07:08:07;98928.50;;;22.89;19.72
62524;BME280;53689;56.878;60.672;2023-04-04T07:10:35;98940.09;;;22.52;20.54
62524;BME280;53689;56.878;60.672;2023-04-04T07:13:05;98942.97;;;22.51;20.42
62524;BME280;53689;56.878;60.672;2023-04-04T07:15:34;98937.47;;;22.74;19.99
62524;BME280;53689;56.878;60.672;2023-04-04T07:18:01;98931.69;;;22.77;19.36
62524;BME280;53689;56.878;60.672;2023-04-04T07:20:29;98928.78;;;22.79;19.36
62524;BME280;53689;56.878;60.672;2023-04-04T07:22:57;98928.13;;;22.92;20.18
62524;BME280;53689;56.878;60.672;2023-04-04T07:25:24;98932.94;;;22.96;20.14
62524;BME280;53689;56.878;60.672;2023-04-04T07:27:51;98929.78;;;22.93;19.70
62524;BME280;53689;56.878;60.672;2023-04-04T07:30:33;98926.63;;;22.89;19.97
62524;BME280;53689;56.878;60.672;2023-04-04T07:33:01;98927.66;;;22.88;19.85
62524;BME280;53689;56.878;60.672;2023-04-04T07:35:29;98929.94;;;22.39;19.95
62524;BME280;53689;56.878;60.672;2023-04-04T07:37:57;98931.88;;;22.00;20.26
62524;BME280;53689;56.878;60.672;2023-04-04T07:40:24;98926.84;;;21.97;19.99
62524;BME280;53689;56.878;60.672;2023-04-04T07:42:52;98929.50;;;21.67;19.84
62524;BME280;53689;56.878;60.672;2023-04-04T07:45:19;98921.63;;;21.96;19.73
62524;BME280;53689;56.878;60.672;2023-04-04T07:47:48;98929.47;;;22.06;19.64
62524;BME280;53689;56.878;60.672;2023-04-04T07:50:15;98924.69;;;21.78;20.53
62524;BME280;53689;56.878;60.672;2023-04-04T07:52:47;98924.03;;;21.75;19.73
62524;BME280;53689;56.878;60.672;2023-04-04T07:55:16;98926.19;;;21.80;19.70
62524;BME280;53689;56.878;60.672;2023-04-04T07:57:44;98915.50;;;21.87;19.49
62524;BME280;53689;56.878;60.672;2023-04-04T08:00:11;98919.06;;;22.02;19.58
62524;BME280;53689;56.878;60.672;2023-04-04T08:02:39;98914.03;;;21.99;19.31
62524;BME280;53689;56.878;60.672;2023-04-04T08:05:09;98911.63;;;22.35;20.40
62524;BME280;53689;56.878;60.672;2023-04-04T08:07:38;98907.31;;;22.40;20.08
62524;BME280;53689;56.878;60.672;2023-04-04T08:10:05;98907.91;;;22.51;19.72
62524;BME280;53689;56.878;60.672;2023-04-04T08:12:34;98907.63;;;22.45;19.71
62524;BME280;53689;56.878;60.672;2023-04-04T08:15:01;98908.09;;;22.49;19.23
62524;BME280;53689;56.878;60.672;2023-04-04T08:17:29;98902.47;;;22.66;19.42
62524;BME280;53689;56.878;60.672;2023-04-04T08:19:57;98905.13;;;22.81;20.15
62524;BME280;53689;56.878;60.672;2023-04-04T08:22:26;98905.13;;;22.96;19.79
62524;BME280;53689;56.878;60.672;2023-04-04T08:24:54;98900.72;;;22.95;19.28
62524;BME280;53689;56.878;60.672;2023-04-04T08:27:21;98903.97;;;23.05;19.33
62524;BME280;53689;56.878;60.672;2023-04-04T08:29:49;98902.09;;;23.06;19.63
62524;BME280;53689;56.878;60.672;2023-04-04T08:32:17;98897.41;;;23.14;19.07
62524;BME280;53689;56.878;60.672;2023-04-04T08:34:44;98897.56;;;23.28;18.49
62524;BME280;53689;56.878;60.672;2023-04-04T08:37:12;98898.28;;;23.22;18.44
62524;BME280;53689;56.878;60.672;2023-04-04T08:39:40;98898.06;;;23.17;18.62
62524;BME280;53689;56.878;60.672;2023-04-04T08:42:07;98892.66;;;23.17;19.40
62524;BME280;53689;56.878;60.672;2023-04-04T08:44:35;98891.84;;;23.23;18.03
62524;BME280;53689;56.878;60.672;2023-04-04T08:47:04;98894.56;;;23.23;18.86
62524;BME280;53689;56.878;60.672;2023-04-04T08:49:32;98896.69;;;23.27;17.85
62524;BME280;53689;56.878;60.672;2023-04-04T08:52:01;98891.75;;;23.31;17.94
62524;BME280;53689;56.878;60.672;2023-04-04T08:54:29;98888.97;;;23.24;17.79
62524;BME280;53689;56.878;60.672;2023-04-04T08:56:59;98883.91;;;23.14;19.34
62524;BME280;53689;56.878;60.672;2023-04-04T08:59:27;98887.69;;;23.20;20.46
62524;BME280;53689;56.878;60.672;2023-04-04T09:01:55;98876.00;;;23.13;19.87
62524;BME280;53689;56.878;60.672;2023-04-04T09:04:27;98876.81;;;23.13;20.32
62524;BME280;53689;56.878;60.672;2023-04-04T09:06:54;98883.50;;;23.18;19.39
62524;BME280;53689;56.878;60.672;2023-04-04T09:09:22;98886.63;;;23.14;19.20
62524;BME280;53689;56.878;60.672;2023-04-04T09:11:50;98881.72;;;23.25;18.87
62524;BME280;53689;56.878;60.672;2023-04-04T09:14:19;98877.34;;;23.24;18.74
62524;BME280;53689;56.878;60.672;2023-04-04T09:16:47;98872.59;;;23.26;18.97
62524;BME280;53689;56.878;60.672;2023-04-04T09:19:15;98877.66;;;23.14;18.80
62524;BME280;53689;56.878;60.672;2023-04-04T09:21:45;98880.06;;;23.46;18.26
62524;BME280;53689;56.878;60.672;2023-04-04T09:24:12;98877.59;;;23.51;18.85
62524;BME280;53689;56.878;60.672;2023-04-04T09:26:46;98876.06;;;23.70;18.06
62524;BME280;53689;56.878;60.672;2023-04-04T09:29:16;98867.97;;;23.70;18.14
62524;BME280;53689;56.878;60.672;2023-04-04T09:31:46;98863.63;;;23.76;17.84
62524;BME280;53689;56.878;60.672;2023-04-04T09:34:14;98863.91;;;23.81;18.03
62524;BME280;53689;56.878;60.672;2023-04-04T09:36:42;98862.13;;;23.66;17.75
62524;BME280;53689;56.878;60.672;2023-04-04T09:39:11;98860.75;;;23.77;18.29
62524;BME280;53689;56.878;60.672;2023-04-04T09:41:39;98856.16;;;23.78;17.84
62524;BME280;53689;56.878;60.672;2023-04-04T09:44:07;98857.38;;;23.75;18.16
62524;BME280;53689;56.878;60.672;2023-04-04T09:46:36;98853.81;;;23.68;17.99
62524;BME280;53689;56.878;60.672;2023-04-04T09:49:10;98849.94;;;23.77;18.31
62524;BME280;53689;56.878;60.672;2023-04-04T09:51:40;98844.97;;;23.81;18.45
62524;BME280;53689;56.878;60.672;2023-04-04T09:54:08;98857.56;;;23.67;19.79
62524;BME280;53689;56.878;60.672;2023-04-04T09:56:48;98853.41;;;23.71;18.25
62524;BME280;53689;56.878;60.672;2023-04-04T09:59:16;98841.84;;;23.84;17.76
62524;BME280;53689;56.878;60.672;2023-04-04T10:01:43;98847.06;;;23.86;18.05
62524;BME280;53689;56.878;60.672;2023-04-04T10:04:13;98847.91;;;23.86;18.10
62524;BME280;53689;56.878;60.672;2023-04-04T10:06:42;98851.63;;;23.85;18.17
62524;BME280;53689;56.878;60.672;2023-04-04T10:09:09;98847.25;;;23.84;18.42
62524;BME280;53689;56.878;60.672;2023-04-04T10:11:37;98838.78;;;23.94;18.19
62524;BME280;53689;56.878;60.672;2023-04-04T10:14:05;98831.81;;;24.06;17.69
62524;BME280;53689;56.878;60.672;2023-04-04T10:16:32;98835.09;;;24.02;18.42
62524;BME280;53689;56.878;60.672;2023-04-04T10:19:00;98842.31;;;23.94;17.67
62524;BME280;53689;56.878;60.672;2023-04-04T10:21:29;98840.41;;;23.88;18.19
62524;BME280;53689;56.878;60.672;2023-04-04T10:23:57;98841.91;;;23.97;18.34
62524;BME280;53689;56.878;60.672;2023-04-04T10:26:24;98828.03;;;24.01;17.69
62524;BME280;53689;56.878;60.672;2023-04-04T10:28:53;98830.25;;;23.90;18.25
62524;BME280;53689;56.878;60.672;2023-04-04T10:31:21;98834.16;;;23.81;17.77
62524;BME280;53689;56.878;60.672;2023-04-04T10:33:51;98817.13;;;23.87;18.26
62524;BME280;53689;56.878;60.672;2023-04-04T10:36:21;98827.25;;;23.78;18.54
62524;BME280;53689;56.878;60.672;2023-04-04T10:38:54;98823.81;;;23.91;18.46
62524;BME280;53689;56.878;60.672;2023-04-04T10:41:24;98825.63;;;23.84;18.02
62524;BME280;53689;56.878;60.672;2023-04-04T10:43:53;98826.25;;;23.86;18.35
62524;BME280;53689;56.878;60.672;2023-04-04T10:46:22;98813.16;;;23.83;18.36
62524;BME280;53689;56.878;60.672;2023-04-04T10:48:50;98809.63;;;23.89;18.14
62524;BME280;53689;56.878;60.672;2023-04-04T10:51:17;98815.25;;;23.88;18.10
62524;BME280;53689;56.878;60.672;2023-04-04T10:53:44;98814.81;;;23.84;18.17
62524;BME280;53689;56.878;60.672;2023-04-04T10:56:13;98808.25;;;24.00;18.05
62524;BME280;53689;56.878;60.672;2023-04-04T10:58:41;98810.75;;;24.02;18.23
62524;BME280;53689;56.878;60.672;2023-04-04T11:01:10;98807.59;;;23.91;18.01
62524;BME280;53689;56.878;60.672;2023-04-04T11:06:37;98805.50;;;23.93;18.37
62524;BME280;53689;56.878;60.672;2023-04-04T11:12:11;98799.94;;;24.02;17.38
62524;BME280;53689;56.878;60.672;2023-04-04T11:14:39;98798.47;;;23.99;18.17
62524;BME280;53689;56.878;60.672;2023-04-04T11:17:23;98795.94;;;23.97;18.02
62524;BME280;53689;56.878;60.672;2023-04-04T11:20:01;98792.63;;;23.95;18.02
62524;BME280;53689;56.878;60.672;2023-04-04T11:22:28;98790.59;;;24.04;18.53
62524;BME280;53689;56.878;60.672;2023-04-04T11:24:57;98787.53;;;24.14;18.30
62524;BME280;53689;56.878;60.672;2023-04-04T11:27:26;98780.44;;;24.13;17.43
62524;BME280;53689;56.878;60.672;2023-04-04T11:29:56;98786.91;;;24.12;18.23
62524;BME280;53689;56.878;60.672;2023-04-04T11:32:33;98782.97;;;24.15;18.01
62524;BME280;53689;56.878;60.672;2023-04-04T11:35:11;98788.53;;;24.06;17.92
62524;BME280;53689;56.878;60.672;2023-04-04T11:37:42;98786.06;;;24.11;17.87
62524;BME280;53689;56.878;60.672;2023-04-04T11:40:09;98789.34;;;24.07;18.02
62524;BME280;53689;56.878;60.672;2023-04-04T11:42:38;98782.72;;;24.09;18.00
62524;BME280;53689;56.878;60.672;2023-04-04T11:45:05;98775.84;;;24.14;17.93
62524;BME280;53689;56.878;60.672;2023-04-04T11:47:34;98776.06;;;24.12;18.05
62524;BME280;53689;56.878;60.672;2023-04-04T11:50:06;98778.94;;;24.04;17.88
62524;BME280;53689;56.878;60.672;2023-04-04T11:52:33;98781.88;;;24.09;18.04
62524;BME280;53689;56.878;60.672;2023-04-04T11:55:01;98782.22;;;23.99;17.42
62524;BME280;53689;56.878;60.672;2023-04-04T11:57:28;98780.22;;;24.08;17.96
62524;BME280;53689;56.878;60.672;2023-04-04T11:59:58;98774.78;;;24.08;18.04
62524;BME280;53689;56.878;60.672;2023-04-04T12:02:25;98772.31;;;24.06;18.36
62524;BME280;53689;56.878;60.672;2023-04-04T12:04:52;98768.16;;;24.10;17.92
62524;BME280;53689;56.878;60.672;2023-04-04T12:07:21;98770.06;;;24.17;17.66
62524;BME280;53689;56.878;60.672;2023-04-04T12:09:49;98770.69;;;24.19;18.28
62524;BME280;53689;56.878;60.672;2023-04-04T12:12:17;98772.78;;;24.23;17.99
62524;BME280;53689;56.878;60.672;2023-04-04T12:14:44;98772.16;;;24.21;17.28
62524;BME280;53689;56.878;60.672;2023-04-04T12:17:15;98768.66;;;24.34;17.99
62524;BME280;53689;56.878;60.672;2023-04-04T12:19:43;98763.06;;;24.43;17.82
62524;BME280;53689;56.878;60.672;2023-04-04T12:22:10;98760.38;;;24.43;17.52
62524;BME280;53689;56.878;60.672;2023-04-04T12:24:37;98762.84;;;24.44;17.52
62524;BME280;53689;56.878;60.672;2023-04-04T12:27:04;98764.13;;;24.62;17.76
62524;BME280;53689;56.878;60.672;2023-04-04T12:29:32;98757.88;;;24.61;17.33
62524;BME280;53689;56.878;60.672;2023-04-04T12:32:00;98759.59;;;24.89;16.98
62524;BME280;53689;56.878;60.672;2023-04-04T12:34:30;98758.97;;;24.80;16.89
62524;BME280;53689;56.878;60.672;2023-04-04T12:36:59;98759.19;;;24.99;17.04
62524;BME280;53689;56.878;60.672;2023-04-04T12:39:27;98764.63;;;24.92;16.87
62524;BME280;53689;56.878;60.672;2023-04-04T12:41:56;98759.75;;;24.61;17.04
62524;BME280;53689;56.878;60.672;2023-04-04T12:44:25;98759.53;;;24.49;17.21
62524;BME280;53689;56.878;60.672;2023-04-04T12:46:54;98759.09;;;24.38;18.11
62524;BME280;53689;56.878;60.672;2023-04-04T12:49:22;98760.75;;;24.46;18.21
62524;BME280;53689;56.878;60.672;2023-04-04T12:51:53;98754.94;;;24.43;17.22
62524;BME280;53689;56.878;60.672;2023-04-04T12:54:24;98760.81;;;24.53;17.34
62524;BME280;53689;56.878;60.672;2023-04-04T12:56:55;98766.84;;;24.55;17.36
62524;BME280;53689;56.878;60.672;2023-04-04T12:59:26;98757.44;;;24.51;17.34
62524;BME280;53689;56.878;60.672;2023-04-04T13:01:54;98754.72;;;24.51;17.85
62524;BME280;53689;56.878;60.672;2023-04-04T13:04:21;98754.34;;;24.54;17.37
62524;BME280;53689;56.878;60.672;2023-04-04T13:06:50;98752.06;;;24.64;17.23